sensor_id;sensor_type;location;lat;lon;timestamp;temperature;humidity
25342;DHT22;13298;48.792;9.154;2023-03-24T00:00:19;13.00;99.90
25342;DHT22;13298;48.792;9.154;2023-03-24T00:02:46;13.00;99.90
25342;DHT22;13298;48.792;9.154;2023-03-24T00:05:15;12.90;99.90
25342;DHT22;13298;48.792;9.154;2023-03-24T00:07:43;12.90;99.90
25342;DHT22;13298;48.792;9.154;2023-03-24T00:10:16;12.80;99.90
25342;DHT22;13298;48.792;9.154;2023-03-24T00:12:44;12.70;99.90
25342;DHT22;13298;48.792;9.154;2023-03-24T00:15:13;12.70;99.90
25342;DHT22;13298;48.792;9.154;2023-03-24T00:17:40;12.60;99.90
25342;DHT22;13298;48.792;9.154;2023-03-24T00:20:08;12.60;99.90
25342;DHT22;13298;48.792;9.154;2023-03-24T00:22:38;12.50;99.90
25342;DHT22;13298;48.792;9.154;2023-03-24T00:25:08;12.50;99.90
25342;DHT22;13298;48.792;9.154;2023-03-24T00:27:34;12.50;99.90
25342;DHT22;13298;48.792;9.154;2023-03-24T00:30:03;12.50;99.90
25342;DHT22;13298;48.792;9.154;2023-03-24T00:32:33;12.50;99.90
25342;DHT22;13298;48.792;9.154;2023-03-24T00:35:02;12.50;99.90
25342;DHT22;13298;48.792;9.154;2023-03-24T00:37:28;12.50;99.90
25342;DHT22;13298;48.792;9.154;2023-03-24T00:39:54;12.50;99.90
25342;DHT22;13298;48.792;9.154;2023-03-24T00:42:20;12.50;99.90
25342;DHT22;13298;48.792;9.154;2023-03-24T00:44:46;12.50;99.90
25342;DHT22;13298;48.792;9.154;2023-03-24T00:47:12;12.50;99.90
25342;DHT22;13298;48.792;9.154;2023-03-24T00:49:37;12.50;99.90
25342;DHT22;13298;48.792;9.154;2023-03-24T00:52:14;12.50;99.90
25342;DHT22;13298;48.792;9.154;2023-03-24T00:54:46;12.50;99.90
25342;DHT22;13298;48.792;9.154;2023-03-24T00:57:14;12.50;99.90
25342;DHT22;13298;48.792;9.154;2023-03-24T00:59:47;12.50;99.90
25342;DHT22;13298;48.792;9.154;2023-03-24T01:02:18;12.50;99.90
25342;DHT22;13298;48.792;9.154;2023-03-24T01:04:55;12.40;99.90
25342;DHT22;13298;48.792;9.154;2023-03-24T01:07:24;12.40;99.90
25342;DHT22;13298;48.792;9.154;2023-03-24T01:09:50;12.40;99.90
25342;DHT22;13298;48.792;9.154;2023-03-24T01:12:23;12.40;99.90
25342;DHT22;13298;48.792;9.154;2023-03-24T01:14:49;12.40;99.90
25342;DHT22;13298;48.792;9.154;2023-03-24T01:17:16;12.40;99.90
25342;DHT22;13298;48.792;9.154;2023-03-24T01:19:43;12.40;99.90
25342;DHT22;13298;48.792;9.154;2023-03-24T01:22:09;12.40;99.90
25342;DHT22;13298;48.792;9.154;2023-03-24T01:24:35;12.40;99.90
25342;DHT22;13298;48.792;9.154;2023-03-24T01:27:01;12.40;99.90
25342;DHT22;13298;48.792;9.154;2023-03-24T01:29:27;12.30;99.90
25342;DHT22;13298;48.792;9.154;2023-03-24T01:31:53;12.30;99.90
25342;DHT22;13298;48.792;9.154;2023-03-24T01:34:18;12.20;99.90
25342;DHT22;13298;48.792;9.154;2023-03-24T01:36:44;12.20;99.90
25342;DHT22;13298;48.792;9.154;2023-03-24T01:39:10;12.20;99.90
25342;DHT22;13298;48.792;9.154;2023-03-24T01:41:37;12.20;99.90
25342;DHT22;13298;48.792;9.154;2023-03-24T01:44:23;12.30;99.90
25342;DHT22;13298;48.792;9.154;2023-03-24T01:46:55;12.40;99.90
25342;DHT22;13298;48.792;9.154;2023-03-24T01:49:24;12.40;99.90
25342;DHT22;13298;48.792;9.154;2023-03-24T01:51:56;12.50;99.90
25342;DHT22;13298;48.792;9.154;2023-03-24T01:54:41;12.40;99.90
25342;DHT22;13298;48.792;9.154;2023-03-24T01:57:21;12.40;99.90
25342;DHT22;13298;48.792;9.154;2023-03-24T01:59:52;12.40;99.90
25342;DHT22;13298;48.792;9.154;2023-03-24T02:02:19;12.40;99.90
25342;DHT22;13298;48.792;9.154;2023-03-24T02:04:56;12.40;99.90
25342;DHT22;13298;48.792;9.154;2023-03-24T02:10:14;12.40;99.90
25342;DHT22;13298;48.792;9.154;2023-03-24T02:12:42;12.30;99.90
25342;DHT22;13298;48.792;9.154;2023-03-24T02:15:10;12.30;99.90
25342;DHT22;13298;48.792;9.154;2023-03-24T02:21:11;12.40;99.90
25342;DHT22;13298;48.792;9.154;2023-03-24T02:38:21;12.60;99.90
25342;DHT22;13298;48.792;9.154;2023-03-24T02:46:40;12.60;99.90
25342;DHT22;13298;48.792;9.154;2023-03-24T02:49:29;12.70;99.90
25342;DHT22;13298;48.792;9.154;2023-03-24T02:52:09;12.70;99.90
25342;DHT22;13298;48.792;9.154;2023-03-24T02:54:45;12.70;99.90
25342;DHT22;13298;48.792;9.154;2023-03-24T02:57:35;12.80;99.90
25342;DHT22;13298;48.792;9.154;2023-03-24T03:03:12;12.90;99.90
25342;DHT22;13298;48.792;9.154;2023-03-24T03:05:45;12.90;99.90
25342;DHT22;13298;48.792;9.154;2023-03-24T03:08:16;13.10;99.90
25342;DHT22;13298;48.792;9.154;2023-03-24T03:10:47;13.10;99.90
25342;DHT22;13298;48.792;9.154;2023-03-24T03:13:31;13.10;99.90
25342;DHT22;13298;48.792;9.154;2023-03-24T03:16:06;13.20;99.90
25342;DHT22;13298;48.792;9.154;2023-03-24T03:18:45;13.20;99.90
25342;DHT22;13298;48.792;9.154;2023-03-24T03:21:16;13.20;99.90
25342;DHT22;13298;48.792;9.154;2023-03-24T03:23:52;13.20;99.90
25342;DHT22;13298;48.792;9.154;2023-03-24T03:26:21;13.20;99.90
25342;DHT22;13298;48.792;9.154;2023-03-24T03:28:54;13.20;99.90
25342;DHT22;13298;48.792;9.154;2023-03-24T03:31:30;13.20;99.90
25342;DHT22;13298;48.792;9.154;2023-03-24T03:34:10;13.30;99.90
25342;DHT22;13298;48.792;9.154;2023-03-24T03:36:54;13.30;99.90
25342;DHT22;13298;48.792;9.154;2023-03-24T03:39:50;13.30;99.90
25342;DHT22;13298;48.792;9.154;2023-03-24T03:42:15;13.30;99.90
25342;DHT22;13298;48.792;9.154;2023-03-24T03:44:40;13.30;99.90
25342;DHT22;13298;48.792;9.154;2023-03-24T03:47:06;13.20;99.90
25342;DHT22;13298;48.792;9.154;2023-03-24T03:49:32;13.20;99.90
25342;DHT22;13298;48.792;9.154;2023-03-24T03:51:58;13.20;99.90
25342;DHT22;13298;48.792;9.154;2023-03-24T03:54:25;13.30;99.90
25342;DHT22;13298;48.792;9.154;2023-03-24T03:56:52;13.30;99.90
25342;DHT22;13298;48.792;9.154;2023-03-24T03:59:28;13.30;99.90
25342;DHT22;13298;48.792;9.154;2023-03-24T04:01:55;13.30;99.90
25342;DHT22;13298;48.792;9.154;2023-03-24T04:04:47;13.30;99.90
25342;DHT22;13298;48.792;9.154;2023-03-24T04:13:35;13.40;99.90
25342;DHT22;13298;48.792;9.154;2023-03-24T04:19:45;13.50;99.90
25342;DHT22;13298;48.792;9.154;2023-03-24T04:25:39;13.60;99.90
25342;DHT22;13298;48.792;9.154;2023-03-24T04:28:21;13.60;99.90
25342;DHT22;13298;48.792;9.154;2023-03-24T04:31:03;13.60;99.90
25342;DHT22;13298;48.792;9.154;2023-03-24T04:33:48;13.60;99.90
25342;DHT22;13298;48.792;9.154;2023-03-24T04:36:45;13.60;99.90
25342;DHT22;13298;48.792;9.154;2023-03-24T04:39:18;13.60;99.90
25342;DHT22;13298;48.792;9.154;2023-03-24T04:41:54;13.60;99.90
25342;DHT22;13298;48.792;9.154;2023-03-24T04:44:22;13.60;99.90
25342;DHT22;13298;48.792;9.154;2023-03-24T04:46:49;13.70;99.90
25342;DHT22;13298;48.792;9.154;2023-03-24T04:49:16;13.70;99.90
25342;DHT22;13298;48.792;9.154;2023-03-24T04:51:44;13.80;99.90
25342;DHT22;13298;48.792;9.154;2023-03-24T04:54:10;13.80;99.90
25342;DHT22;13298;48.792;9.154;2023-03-24T04:56:40;13.80;99.90
25342;DHT22;13298;48.792;9.154;2023-03-24T04:59:08;13.80;99.90
25342;DHT22;13298;48.792;9.154;2023-03-24T05:01:33;13.90;99.90
25342;DHT22;13298;48.792;9.154;2023-03-24T05:04:02;13.90;99.90
25342;DHT22;13298;48.792;9.154;2023-03-24T05:06:29;13.90;99.90
25342;DHT22;13298;48.792;9.154;2023-03-24T05:08:55;13.90;99.90
25342;DHT22;13298;48.792;9.154;2023-03-24T05:11:24;13.90;99.90
25342;DHT22;13298;48.792;9.154;2023-03-24T05:13:51;14.00;99.90
25342;DHT22;13298;48.792;9.154;2023-03-24T05:16:18;14.00;99.90
25342;DHT22;13298;48.792;9.154;2023-03-24T05:18:44;14.00;99.90
25342;DHT22;13298;48.792;9.154;2023-03-24T05:21:11;14.00;99.90
25342;DHT22;13298;48.792;9.154;2023-03-24T05:23:37;13.90;99.90
25342;DHT22;13298;48.792;9.154;2023-03-24T05:26:03;13.90;99.90
25342;DHT22;13298;48.792;9.154;2023-03-24T05:28:29;13.90;99.90
25342;DHT22;13298;48.792;9.154;2023-03-24T05:30:55;13.90;99.90
25342;DHT22;13298;48.792;9.154;2023-03-24T05:33:21;13.80;99.90
25342;DHT22;13298;48.792;9.154;2023-03-24T05:35:47;13.60;99.90
25342;DHT22;13298;48.792;9.154;2023-03-24T05:38:12;13.50;99.90
25342;DHT22;13298;48.792;9.154;2023-03-24T05:40:38;13.40;99.90
25342;DHT22;13298;48.792;9.154;2023-03-24T05:43:04;13.30;99.90
25342;DHT22;13298;48.792;9.154;2023-03-24T05:45:32;13.10;99.90
25342;DHT22;13298;48.792;9.154;2023-03-24T05:47:58;13.00;99.90
25342;DHT22;13298;48.792;9.154;2023-03-24T05:50:24;12.90;99.90
25342;DHT22;13298;48.792;9.154;2023-03-24T05:52:50;12.90;99.90
25342;DHT22;13298;48.792;9.154;2023-03-24T05:55:17;12.80;99.90
25342;DHT22;13298;48.792;9.154;2023-03-24T05:57:44;12.80;99.90
25342;DHT22;13298;48.792;9.154;2023-03-24T06:00:10;12.80;99.90
25342;DHT22;13298;48.792;9.154;2023-03-24T06:02:42;12.70;99.90
25342;DHT22;13298;48.792;9.154;2023-03-24T06:05:08;12.60;99.90
25342;DHT22;13298;48.792;9.154;2023-03-24T06:07:35;12.60;99.90
25342;DHT22;13298;48.792;9.154;2023-03-24T06:10:03;12.50;99.90
25342;DHT22;13298;48.792;9.154;2023-03-24T06:12:29;12.50;99.90
25342;DHT22;13298;48.792;9.154;2023-03-24T06:14:56;12.50;99.90
25342;DHT22;13298;48.792;9.154;2023-03-24T06:17:23;12.40;99.90
25342;DHT22;13298;48.792;9.154;2023-03-24T06:19:50;12.50;99.90
25342;DHT22;13298;48.792;9.154;2023-03-24T06:22:19;12.40;99.90
25342;DHT22;13298;48.792;9.154;2023-03-24T06:24:46;12.50;99.90
25342;DHT22;13298;48.792;9.154;2023-03-24T06:27:12;12.40;99.90
25342;DHT22;13298;48.792;9.154;2023-03-24T06:29:39;12.50;99.90
25342;DHT22;13298;48.792;9.154;2023-03-24T06:32:08;12.40;99.90
25342;DHT22;13298;48.792;9.154;2023-03-24T06:34:35;12.40;99.90
25342;DHT22;13298;48.792;9.154;2023-03-24T06:37:03;12.40;99.90
25342;DHT22;13298;48.792;9.154;2023-03-24T06:39:29;12.50;99.90
25342;DHT22;13298;48.792;9.154;2023-03-24T06:41:55;12.50;99.90
25342;DHT22;13298;48.792;9.154;2023-03-24T06:44:21;12.60;99.90
25342;DHT22;13298;48.792;9.154;2023-03-24T06:46:46;12.70;99.90
25342;DHT22;13298;48.792;9.154;2023-03-24T06:49:12;12.70;99.90
25342;DHT22;13298;48.792;9.154;2023-03-24T06:51:38;12.80;99.90
25342;DHT22;13298;48.792;9.154;2023-03-24T06:54:03;12.80;99.90
25342;DHT22;13298;48.792;9.154;2023-03-24T06:56:29;12.80;99.90
25342;DHT22;13298;48.792;9.154;2023-03-24T06:58:55;12.90;99.90
25342;DHT22;13298;48.792;9.154;2023-03-24T07:01:21;12.90;99.90
25342;DHT22;13298;48.792;9.154;2023-03-24T07:03:48;13.00;99.90
25342;DHT22;13298;48.792;9.154;2023-03-24T07:06:14;13.00;99.90
25342;DHT22;13298;48.792;9.154;2023-03-24T07:08:40;13.00;99.90
25342;DHT22;13298;48.792;9.154;2023-03-24T07:11:06;13.00;99.90
25342;DHT22;13298;48.792;9.154;2023-03-24T07:13:33;13.00;99.90
25342;DHT22;13298;48.792;9.154;2023-03-24T07:15:59;13.00;99.90
25342;DHT22;13298;48.792;9.154;2023-03-24T07:18:25;13.00;99.90
25342;DHT22;13298;48.792;9.154;2023-03-24T07:20:51;13.00;99.90
25342;DHT22;13298;48.792;9.154;2023-03-24T07:23:16;12.90;99.90
25342;DHT22;13298;48.792;9.154;2023-03-24T07:25:42;12.90;99.90
25342;DHT22;13298;48.792;9.154;2023-03-24T07:28:09;12.80;99.90
25342;DHT22;13298;48.792;9.154;2023-03-24T07:30:35;12.80;99.90
25342;DHT22;13298;48.792;9.154;2023-03-24T07:33:02;12.70;99.90
25342;DHT22;13298;48.792;9.154;2023-03-24T07:35:28;12.70;99.90
25342;DHT22;13298;48.792;9.154;2023-03-24T07:37:58;12.60;99.90
25342;DHT22;13298;48.792;9.154;2023-03-24T07:40:24;12.60;99.90
25342;DHT22;13298;48.792;9.154;2023-03-24T07:42:50;12.60;99.90
25342;DHT22;13298;48.792;9.154;2023-03-24T07:45:16;12.50;99.90
25342;DHT22;13298;48.792;9.154;2023-03-24T07:47:45;12.50;99.90
25342;DHT22;13298;48.792;9.154;2023-03-24T07:50:12;12.40;99.90
25342;DHT22;13298;48.792;9.154;2023-03-24T07:52:40;12.40;99.90
25342;DHT22;13298;48.792;9.154;2023-03-24T07:55:08;12.40;99.90
25342;DHT22;13298;48.792;9.154;2023-03-24T07:57:37;12.40;99.90
25342;DHT22;13298;48.792;9.154;2023-03-24T08:00:05;12.40;99.90
25342;DHT22;13298;48.792;9.154;2023-03-24T08:02:40;12.40;99.90
25342;DHT22;13298;48.792;9.154;2023-03-24T08:05:07;12.50;99.90
25342;DHT22;13298;48.792;9.154;2023-03-24T08:07:34;12.50;99.90
25342;DHT22;13298;48.792;9.154;2023-03-24T08:10:01;12.60;99.90
25342;DHT22;13298;48.792;9.154;2023-03-24T08:12:27;12.60;99.90
25342;DHT22;13298;48.792;9.154;2023-03-24T08:14:53;12.60;99.90
25342;DHT22;13298;48.792;9.154;2023-03-24T08:17:18;12.70;99.90
25342;DHT22;13298;48.792;9.154;2023-03-24T08:19:44;12.70;99.90
25342;DHT22;13298;48.792;9.154;2023-03-24T08:22:11;12.70;99.90
25342;DHT22;13298;48.792;9.154;2023-03-24T08:24:37;12.80;99.90
25342;DHT22;13298;48.792;9.154;2023-03-24T08:27:03;12.90;99.90
25342;DHT22;13298;48.792;9.154;2023-03-24T08:29:32;12.90;99.90
25342;DHT22;13298;48.792;9.154;2023-03-24T08:32:00;13.00;99.90
25342;DHT22;13298;48.792;9.154;2023-03-24T08:34:27;13.10;99.90
25342;DHT22;13298;48.792;9.154;2023-03-24T08:36:52;13.20;99.90
25342;DHT22;13298;48.792;9.154;2023-03-24T08:39:19;13.20;99.90
25342;DHT22;13298;48.792;9.154;2023-03-24T08:41:45;13.30;99.90
25342;DHT22;13298;48.792;9.154;2023-03-24T08:44:11;13.40;99.90
25342;DHT22;13298;48.792;9.154;2023-03-24T08:46:38;13.40;99.90
25342;DHT22;13298;48.792;9.154;2023-03-24T08:49:05;13.50;99.90
25342;DHT22;13298;48.792;9.154;2023-03-24T08:51:31;13.50;99.90
25342;DHT22;13298;48.792;9.154;2023-03-24T08:53:57;13.50;99.90
25342;DHT22;13298;48.792;9.154;2023-03-24T08:56:23;13.50;99.90
25342;DHT22;13298;48.792;9.154;2023-03-24T08:58:50;13.60;99.90
25342;DHT22;13298;48.792;9.154;2023-03-24T09:01:21;13.70;99.90
25342;DHT22;13298;48.792;9.154;2023-03-24T09:03:47;13.80;99.90
25342;DHT22;13298;48.792;9.154;2023-03-24T09:06:13;13.90;99.90
25342;DHT22;13298;48.792;9.154;2023-03-24T09:08:40;14.00;99.90
25342;DHT22;13298;48.792;9.154;2023-03-24T09:11:06;14.10;99.90
25342;DHT22;13298;48.792;9.154;2023-03-24T09:13:39;14.10;99.90
25342;DHT22;13298;48.792;9.154;2023-03-24T09:16:05;14.20;99.90
25342;DHT22;13298;48.792;9.154;2023-03-24T09:18:31;14.20;99.90
25342;DHT22;13298;48.792;9.154;2023-03-24T09:20:57;14.30;99.90
25342;DHT22;13298;48.792;9.154;2023-03-24T09:23:23;14.30;99.90
25342;DHT22;13298;48.792;9.154;2023-03-24T09:25:50;14.40;99.90
25342;DHT22;13298;48.792;9.154;2023-03-24T09:28:16;14.70;99.90
25342;DHT22;13298;48.792;9.154;2023-03-24T09:30:42;14.90;99.90
25342;DHT22;13298;48.792;9.154;2023-03-24T09:33:08;15.00;99.90
25342;DHT22;13298;48.792;9.154;2023-03-24T09:35:34;15.20;99.90
25342;DHT22;13298;48.792;9.154;2023-03-24T09:37:59;15.20;99.90
25342;DHT22;13298;48.792;9.154;2023-03-24T09:40:28;15.10;99.90
25342;DHT22;13298;48.792;9.154;2023-03-24T09:43:07;15.20;99.90
25342;DHT22;13298;48.792;9.154;2023-03-24T09:45:58;15.20;99.90
25342;DHT22;13298;48.792;9.154;2023-03-24T09:48:40;15.40;99.90
25342;DHT22;13298;48.792;9.154;2023-03-24T09:51:23;15.60;99.90
25342;DHT22;13298;48.792;9.154;2023-03-24T09:56:46;16.00;99.90
25342;DHT22;13298;48.792;9.154;2023-03-24T09:59:35;16.00;99.90
25342;DHT22;13298;48.792;9.154;2023-03-24T10:02:15;16.10;99.90
25342;DHT22;13298;48.792;9.154;2023-03-24T10:04:43;16.20;99.90
25342;DHT22;13298;48.792;9.154;2023-03-24T10:07:33;16.30;99.90
25342;DHT22;13298;48.792;9.154;2023-03-24T10:10:15;16.50;99.90
25342;DHT22;13298;48.792;9.154;2023-03-24T10:12:49;16.60;99.90
25342;DHT22;13298;48.792;9.154;2023-03-24T10:15:25;17.00;99.90
25342;DHT22;13298;48.792;9.154;2023-03-24T10:18:20;17.30;99.90
25342;DHT22;13298;48.792;9.154;2023-03-24T10:20:57;17.50;99.90
25342;DHT22;13298;48.792;9.154;2023-03-24T10:23:35;17.30;99.90
25342;DHT22;13298;48.792;9.154;2023-03-24T10:29:31;17.50;99.90
25342;DHT22;13298;48.792;9.154;2023-03-24T10:34:28;17.70;99.90
25342;DHT22;13298;48.792;9.154;2023-03-24T10:36:57;17.60;99.90
25342;DHT22;13298;48.792;9.154;2023-03-24T10:39:24;17.60;99.90
25342;DHT22;13298;48.792;9.154;2023-03-24T10:41:51;17.60;99.90
25342;DHT22;13298;48.792;9.154;2023-03-24T10:44:19;17.70;99.90
25342;DHT22;13298;48.792;9.154;2023-03-24T10:46:49;17.70;99.90
25342;DHT22;13298;48.792;9.154;2023-03-24T10:49:23;17.90;99.90
25342;DHT22;13298;48.792;9.154;2023-03-24T10:51:50;17.90;99.90
25342;DHT22;13298;48.792;9.154;2023-03-24T10:54:25;17.90;99.90
25342;DHT22;13298;48.792;9.154;2023-03-24T11:02:24;17.60;99.90
25342;DHT22;13298;48.792;9.154;2023-03-24T11:04:56;17.40;99.90
25342;DHT22;13298;48.792;9.154;2023-03-24T11:07:41;17.10;99.90
25342;DHT22;13298;48.792;9.154;2023-03-24T11:12:43;16.90;99.90
25342;DHT22;13298;48.792;9.154;2023-03-24T11:15:34;16.90;99.90
25342;DHT22;13298;48.792;9.154;2023-03-24T11:18:07;17.10;99.90
25342;DHT22;13298;48.792;9.154;2023-03-24T11:20:59;17.10;99.90
25342;DHT22;13298;48.792;9.154;2023-03-24T11:23:32;17.20;99.90
25342;DHT22;13298;48.792;9.154;2023-03-24T11:28:46;17.50;99.90
25342;DHT22;13298;48.792;9.154;2023-03-24T11:31:29;17.50;99.90
25342;DHT22;13298;48.792;9.154;2023-03-24T11:34:14;17.50;99.90
25342;DHT22;13298;48.792;9.154;2023-03-24T11:36:58;17.70;99.90
25342;DHT22;13298;48.792;9.154;2023-03-24T11:39:26;17.90;99.90
25342;DHT22;13298;48.792;9.154;2023-03-24T11:47:12;17.90;99.90
25342;DHT22;13298;48.792;9.154;2023-03-24T11:49:51;17.70;99.90
25342;DHT22;13298;48.792;9.154;2023-03-24T11:52:28;17.50;99.90
25342;DHT22;13298;48.792;9.154;2023-03-24T11:54:56;17.40;99.90
25342;DHT22;13298;48.792;9.154;2023-03-24T11:57:48;17.60;99.90
25342;DHT22;13298;48.792;9.154;2023-03-24T12:01:15;17.70;99.90
25342;DHT22;13298;48.792;9.154;2023-03-24T12:06:24;17.80;99.90
25342;DHT22;13298;48.792;9.154;2023-03-24T12:11:57;17.20;99.90
25342;DHT22;13298;48.792;9.154;2023-03-24T12:14:40;17.00;99.90
25342;DHT22;13298;48.792;9.154;2023-03-24T12:17:39;17.00;99.90
25342;DHT22;13298;48.792;9.154;2023-03-24T12:23:33;16.90;99.90
25342;DHT22;13298;48.792;9.154;2023-03-24T12:29:21;16.70;99.90
25342;DHT22;13298;48.792;9.154;2023-03-24T12:32:49;16.70;99.90
25342;DHT22;13298;48.792;9.154;2023-03-24T12:35:36;16.80;99.90
25342;DHT22;13298;48.792;9.154;2023-03-24T12:56:25;16.60;99.90
25342;DHT22;13298;48.792;9.154;2023-03-24T12:59:17;16.40;99.90
25342;DHT22;13298;48.792;9.154;2023-03-24T13:01:51;16.40;99.90
25342;DHT22;13298;48.792;9.154;2023-03-24T13:04:32;16.30;99.90
25342;DHT22;13298;48.792;9.154;2023-03-24T13:07:11;16.20;99.90
25342;DHT22;13298;48.792;9.154;2023-03-24T13:09:47;16.20;99.90
25342;DHT22;13298;48.792;9.154;2023-03-24T13:12:34;16.40;99.90
25342;DHT22;13298;48.792;9.154;2023-03-24T13:23:47;16.70;99.90
25342;DHT22;13298;48.792;9.154;2023-03-24T13:29:34;16.60;99.90
25342;DHT22;13298;48.792;9.154;2023-03-24T13:32:20;16.30;99.90
25342;DHT22;13298;48.792;9.154;2023-03-24T13:40:56;15.40;99.90
25342;DHT22;13298;48.792;9.154;2023-03-24T13:43:28;15.20;99.90
25342;DHT22;13298;48.792;9.154;2023-03-24T13:46:01;15.10;99.90
25342;DHT22;13298;48.792;9.154;2023-03-24T13:48:33;15.10;99.90
25342;DHT22;13298;48.792;9.154;2023-03-24T13:53:44;15.10;99.90
25342;DHT22;13298;48.792;9.154;2023-03-24T13:56:24;15.00;99.90
25342;DHT22;13298;48.792;9.154;2023-03-24T13:59:25;15.00;99.90
25342;DHT22;13298;48.792;9.154;2023-03-24T14:02:16;15.00;99.90
25342;DHT22;13298;48.792;9.154;2023-03-24T14:16:02;15.20;99.90
25342;DHT22;13298;48.792;9.154;2023-03-24T14:19:22;15.20;99.90
25342;DHT22;13298;48.792;9.154;2023-03-24T14:25:04;14.90;99.90
25342;DHT22;13298;48.792;9.154;2023-03-24T14:27:44;14.50;99.90
25342;DHT22;13298;48.792;9.154;2023-03-24T14:30:27;14.10;99.90
25342;DHT22;13298;48.792;9.154;2023-03-24T14:32:56;13.80;99.90
25342;DHT22;13298;48.792;9.154;2023-03-24T14:40:42;13.00;99.90
25342;DHT22;13298;48.792;9.154;2023-03-24T14:43:58;12.80;99.90
25342;DHT22;13298;48.792;9.154;2023-03-24T14:49:25;11.90;99.90
25342;DHT22;13298;48.792;9.154;2023-03-24T14:52:12;11.70;99.90
25342;DHT22;13298;48.792;9.154;2023-03-24T14:55:06;11.40;99.90
25342;DHT22;13298;48.792;9.154;2023-03-24T14:57:50;11.20;99.90
25342;DHT22;13298;48.792;9.154;2023-03-24T15:00:29;11.00;99.90
25342;DHT22;13298;48.792;9.154;2023-03-24T15:05:53;10.80;99.90
25342;DHT22;13298;48.792;9.154;2023-03-24T15:08:22;10.80;99.90
25342;DHT22;13298;48.792;9.154;2023-03-24T15:13:43;10.70;99.90
25342;DHT22;13298;48.792;9.154;2023-03-24T15:18:55;10.60;99.90
25342;DHT22;13298;48.792;9.154;2023-03-24T15:21:39;10.60;99.90
25342;DHT22;13298;48.792;9.154;2023-03-24T15:26:49;10.60;99.90
25342;DHT22;13298;48.792;9.154;2023-03-24T15:29:17;10.60;99.90
25342;DHT22;13298;48.792;9.154;2023-03-24T15:31:43;10.50;99.90
25342;DHT22;13298;48.792;9.154;2023-03-24T15:34:29;10.60;99.90
25342;DHT22;13298;48.792;9.154;2023-03-24T15:37:00;10.70;99.90
25342;DHT22;13298;48.792;9.154;2023-03-24T15:39:38;10.90;99.90
25342;DHT22;13298;48.792;9.154;2023-03-24T15:42:14;11.10;99.90
25342;DHT22;13298;48.792;9.154;2023-03-24T15:44:42;11.20;99.90
25342;DHT22;13298;48.792;9.154;2023-03-24T15:47:23;11.30;99.90
25342;DHT22;13298;48.792;9.154;2023-03-24T15:49:59;11.30;99.90
25342;DHT22;13298;48.792;9.154;2023-03-24T15:52:37;11.40;99.90
25342;DHT22;13298;48.792;9.154;2023-03-24T15:55:26;11.50;99.90
25342;DHT22;13298;48.792;9.154;2023-03-24T15:57:58;11.50;99.90
25342;DHT22;13298;48.792;9.154;2023-03-24T16:00:29;11.60;99.90
25342;DHT22;13298;48.792;9.154;2023-03-24T16:03:00;11.70;99.90
25342;DHT22;13298;48.792;9.154;2023-03-24T16:05:30;11.80;99.90
25342;DHT22;13298;48.792;9.154;2023-03-24T16:07:59;11.90;99.90
25342;DHT22;13298;48.792;9.154;2023-03-24T16:10:38;12.00;99.90
25342;DHT22;13298;48.792;9.154;2023-03-24T16:13:11;12.10;99.90
25342;DHT22;13298;48.792;9.154;2023-03-24T16:15:46;12.10;99.90
25342;DHT22;13298;48.792;9.154;2023-03-24T16:18:19;12.10;99.90
25342;DHT22;13298;48.792;9.154;2023-03-24T16:20:47;12.00;99.90
25342;DHT22;13298;48.792;9.154;2023-03-24T16:23:15;12.00;99.90
25342;DHT22;13298;48.792;9.154;2023-03-24T16:25:41;12.00;99.90
25342;DHT22;13298;48.792;9.154;2023-03-24T16:28:10;11.90;99.90
25342;DHT22;13298;48.792;9.154;2023-03-24T16:30:39;11.90;99.90
25342;DHT22;13298;48.792;9.154;2023-03-24T16:33:05;11.80;99.90
25342;DHT22;13298;48.792;9.154;2023-03-24T16:35:32;11.80;99.90
25342;DHT22;13298;48.792;9.154;2023-03-24T16:37:58;11.70;99.90
25342;DHT22;13298;48.792;9.154;2023-03-24T16:40:31;11.70;99.90
25342;DHT22;13298;48.792;9.154;2023-03-24T16:43:00;11.70;99.90
25342;DHT22;13298;48.792;9.154;2023-03-24T16:45:27;12.20;99.90
25342;DHT22;13298;48.792;9.154;2023-03-24T16:47:54;12.80;99.90
25342;DHT22;13298;48.792;9.154;2023-03-24T16:50:41;13.30;99.90
25342;DHT22;13298;48.792;9.154;2023-03-24T16:53:08;13.50;99.90
25342;DHT22;13298;48.792;9.154;2023-03-24T16:55:35;13.60;99.90
25342;DHT22;13298;48.792;9.154;2023-03-24T16:58:03;13.70;99.90
25342;DHT22;13298;48.792;9.154;2023-03-24T17:00:29;13.70;99.90
25342;DHT22;13298;48.792;9.154;2023-03-24T17:02:55;13.40;99.90
25342;DHT22;13298;48.792;9.154;2023-03-24T17:05:26;13.10;99.90
25342;DHT22;13298;48.792;9.154;2023-03-24T17:07:56;12.70;99.90
25342;DHT22;13298;48.792;9.154;2023-03-24T17:10:24;12.30;99.90
25342;DHT22;13298;48.792;9.154;2023-03-24T17:12:53;12.00;99.90
25342;DHT22;13298;48.792;9.154;2023-03-24T17:15:22;11.70;99.90
25342;DHT22;13298;48.792;9.154;2023-03-24T17:17:52;11.40;99.90
25342;DHT22;13298;48.792;9.154;2023-03-24T17:20:19;11.20;99.90
25342;DHT22;13298;48.792;9.154;2023-03-24T17:22:49;11.00;99.90
25342;DHT22;13298;48.792;9.154;2023-03-24T17:25:19;10.80;99.90
25342;DHT22;13298;48.792;9.154;2023-03-24T17:27:49;10.60;99.90
25342;DHT22;13298;48.792;9.154;2023-03-24T17:30:18;10.60;99.90
25342;DHT22;13298;48.792;9.154;2023-03-24T17:32:45;10.40;99.90
25342;DHT22;13298;48.792;9.154;2023-03-24T17:35:13;10.40;99.90
25342;DHT22;13298;48.792;9.154;2023-03-24T17:37:41;10.20;99.90
25342;DHT22;13298;48.792;9.154;2023-03-24T17:40:09;10.20;99.90
25342;DHT22;13298;48.792;9.154;2023-03-24T17:42:38;10.10;99.90
25342;DHT22;13298;48.792;9.154;2023-03-24T17:45:06;10.00;99.90
25342;DHT22;13298;48.792;9.154;2023-03-24T17:47:32;9.90;99.90
25342;DHT22;13298;48.792;9.154;2023-03-24T17:49:58;9.80;99.90
25342;DHT22;13298;48.792;9.154;2023-03-24T17:52:24;9.70;99.90
25342;DHT22;13298;48.792;9.154;2023-03-24T17:54:50;9.70;99.90
25342;DHT22;13298;48.792;9.154;2023-03-24T17:57:16;9.50;99.90
25342;DHT22;13298;48.792;9.154;2023-03-24T17:59:42;9.50;99.90
25342;DHT22;13298;48.792;9.154;2023-03-24T18:02:11;9.40;99.90
25342;DHT22;13298;48.792;9.154;2023-03-24T18:04:37;9.40;99.90
25342;DHT22;13298;48.792;9.154;2023-03-24T18:07:04;9.30;99.90
25342;DHT22;13298;48.792;9.154;2023-03-24T18:09:33;9.30;99.90
25342;DHT22;13298;48.792;9.154;2023-03-24T18:11:58;9.20;99.90
25342;DHT22;13298;48.792;9.154;2023-03-24T18:14:24;9.10;99.90
25342;DHT22;13298;48.792;9.154;2023-03-24T18:16:50;9.00;99.90
25342;DHT22;13298;48.792;9.154;2023-03-24T18:19:16;9.00;99.90
25342;DHT22;13298;48.792;9.154;2023-03-24T18:21:42;8.90;99.90
25342;DHT22;13298;48.792;9.154;2023-03-24T18:24:09;8.90;99.90
25342;DHT22;13298;48.792;9.154;2023-03-24T18:26:35;9.00;99.90
25342;DHT22;13298;48.792;9.154;2023-03-24T18:29:00;8.90;99.90
25342;DHT22;13298;48.792;9.154;2023-03-24T18:31:26;9.00;99.90